sensor_id;sensor_type;location;lat;lon;timestamp;pressure;altitude;pressure_sealevel;temperature;humidity
51958;BME280;41120;51.820;20.804;2022-07-05T00:00:49;99594.78;;;16.87;100.00
51958;BME280;41120;51.820;20.804;2022-07-05T00:03:20;99590.13;;;16.81;100.00
51958;BME280;41120;51.820;20.804;2022-07-05T00:05:53;99598.78;;;16.73;100.00
51958;BME280;41120;51.820;20.804;2022-07-05T00:08:35;99597.56;;;16.67;100.00
51958;BME280;41120;51.820;20.804;2022-07-05T00:11:03;99595.66;;;16.52;100.00
51958;BME280;41120;51.820;20.804;2022-07-05T00:13:31;99609.00;;;16.32;100.00
51958;BME280;41120;51.820;20.804;2022-07-05T00:15:59;99610.16;;;16.30;100.00
51958;BME280;41120;51.820;20.804;2022-07-05T00:18:33;99616.31;;;16.38;100.00
51958;BME280;41120;51.820;20.804;2022-07-05T00:21:12;99614.81;;;16.54;100.00
51958;BME280;41120;51.820;20.804;2022-07-05T00:23:52;99621.44;;;16.58;100.00
51958;BME280;41120;51.820;20.804;2022-07-05T00:26:46;99617.22;;;16.65;100.00
51958;BME280;41120;51.820;20.804;2022-07-05T00:29:13;99619.84;;;16.65;100.00
51958;BME280;41120;51.820;20.804;2022-07-05T00:31:47;99621.91;;;16.53;100.00
51958;BME280;41120;51.820;20.804;2022-07-05T00:34:27;99634.75;;;16.48;100.00
51958;BME280;41120;51.820;20.804;2022-07-05T00:36:56;99617.97;;;16.57;100.00
51958;BME280;41120;51.820;20.804;2022-07-05T00:39:23;99617.97;;;16.57;100.00
51958;BME280;41120;51.820;20.804;2022-07-05T00:41:49;99619.81;;;16.57;100.00
51958;BME280;41120;51.820;20.804;2022-07-05T00:44:15;99623.97;;;16.41;100.00
51958;BME280;41120;51.820;20.804;2022-07-05T00:46:50;99628.78;;;16.28;100.00
51958;BME280;41120;51.820;20.804;2022-07-05T00:49:21;99618.50;;;16.07;100.00
51958;BME280;41120;51.820;20.804;2022-07-05T00:51:56;99634.59;;;15.86;100.00
51958;BME280;41120;51.820;20.804;2022-07-05T00:54:29;99625.75;;;15.68;100.00
51958;BME280;41120;51.820;20.804;2022-07-05T00:56:57;99624.03;;;15.58;100.00
51958;BME280;41120;51.820;20.804;2022-07-05T00:59:40;99621.34;;;15.68;100.00
51958;BME280;41120;51.820;20.804;2022-07-05T01:02:07;99618.22;;;15.82;100.00
51958;BME280;41120;51.820;20.804;2022-07-05T01:04:44;99618.91;;;15.84;100.00
51958;BME280;41120;51.820;20.804;2022-07-05T01:07:29;99622.34;;;15.95;100.00
51958;BME280;41120;51.820;20.804;2022-07-05T01:09:56;99625.31;;;15.82;100.00
51958;BME280;41120;51.820;20.804;2022-07-05T01:12:24;99610.22;;;15.65;100.00
51958;BME280;41120;51.820;20.804;2022-07-05T01:14:53;99635.91;;;15.72;100.00
51958;BME280;41120;51.820;20.804;2022-07-05T01:17:22;99626.38;;;15.89;100.00
51958;BME280;41120;51.820;20.804;2022-07-05T01:19:51;99625.38;;;16.18;100.00
51958;BME280;41120;51.820;20.804;2022-07-05T01:22:55;99616.84;;;16.60;100.00
51958;BME280;41120;51.820;20.804;2022-07-05T01:25:24;99615.88;;;16.79;100.00
51958;BME280;41120;51.820;20.804;2022-07-05T01:27:52;99629.69;;;16.90;100.00
51958;BME280;41120;51.820;20.804;2022-07-05T01:30:24;99631.13;;;17.11;100.00
51958;BME280;41120;51.820;20.804;2022-07-05T01:32:56;99629.97;;;17.66;100.00
51958;BME280;41120;51.820;20.804;2022-07-05T01:35:25;99635.03;;;17.51;100.00
51958;BME280;41120;51.820;20.804;2022-07-05T01:37:52;99636.44;;;17.37;100.00
51958;BME280;41120;51.820;20.804;2022-07-05T01:40:24;99635.59;;;17.37;100.00
51958;BME280;41120;51.820;20.804;2022-07-05T01:42:50;99637.03;;;17.31;100.00
51958;BME280;41120;51.820;20.804;2022-07-05T01:45:17;99630.44;;;17.27;100.00
51958;BME280;41120;51.820;20.804;2022-07-05T01:48:20;99621.59;;;17.18;100.00
51958;BME280;41120;51.820;20.804;2022-07-05T01:53:54;99625.50;;;17.06;100.00
51958;BME280;41120;51.820;20.804;2022-07-05T01:56:40;99628.44;;;17.03;100.00
51958;BME280;41120;51.820;20.804;2022-07-05T01:59:12;99631.09;;;17.03;100.00
51958;BME280;41120;51.820;20.804;2022-07-05T02:01:44;99627.09;;;16.99;100.00
51958;BME280;41120;51.820;20.804;2022-07-05T02:04:21;99633.97;;;17.09;100.00
51958;BME280;41120;51.820;20.804;2022-07-05T02:06:51;99646.53;;;17.16;100.00
51958;BME280;41120;51.820;20.804;2022-07-05T02:09:16;99633.31;;;17.16;100.00
51958;BME280;41120;51.820;20.804;2022-07-05T02:11:54;99638.47;;;17.17;100.00
51958;BME280;41120;51.820;20.804;2022-07-05T02:14:25;99641.41;;;17.14;100.00
51958;BME280;41120;51.820;20.804;2022-07-05T02:16:51;99645.38;;;17.10;100.00
51958;BME280;41120;51.820;20.804;2022-07-05T02:19:23;99637.44;;;17.10;100.00
51958;BME280;41120;51.820;20.804;2022-07-05T02:21:49;99638.22;;;17.02;100.00
51958;BME280;41120;51.820;20.804;2022-07-05T02:24:20;99636.16;;;16.96;100.00
51958;BME280;41120;51.820;20.804;2022-07-05T02:26:50;99645.28;;;17.02;100.00
51958;BME280;41120;51.820;20.804;2022-07-05T02:29:24;99643.97;;;16.98;100.00
51958;BME280;41120;51.820;20.804;2022-07-05T02:32:13;99637.44;;;16.92;100.00
51958;BME280;41120;51.820;20.804;2022-07-05T02:34:44;99645.00;;;16.87;100.00
51958;BME280;41120;51.820;20.804;2022-07-05T02:37:17;99642.81;;;16.82;100.00
51958;BME280;41120;51.820;20.804;2022-07-05T02:39:48;99638.69;;;16.80;100.00
51958;BME280;41120;51.820;20.804;2022-07-05T02:42:23;99644.25;;;16.77;100.00
51958;BME280;41120;51.820;20.804;2022-07-05T02:44:57;99650.34;;;16.77;100.00
51958;BME280;41120;51.820;20.804;2022-07-05T02:47:24;99650.66;;;16.74;100.00
51958;BME280;41120;51.820;20.804;2022-07-05T02:49:54;99642.75;;;16.74;100.00
51958;BME280;41120;51.820;20.804;2022-07-05T02:52:54;99649.66;;;16.75;100.00
51958;BME280;41120;51.820;20.804;2022-07-05T02:55:29;99640.09;;;16.74;100.00
51958;BME280;41120;51.820;20.804;2022-07-05T02:58:13;99640.25;;;16.73;100.00
51958;BME280;41120;51.820;20.804;2022-07-05T03:00:48;99648.16;;;16.73;100.00
51958;BME280;41120;51.820;20.804;2022-07-05T03:03:22;99645.69;;;16.71;100.00
51958;BME280;41120;51.820;20.804;2022-07-05T03:05:58;99646.53;;;16.72;100.00
51958;BME280;41120;51.820;20.804;2022-07-05T03:08:49;99649.84;;;16.74;100.00
51958;BME280;41120;51.820;20.804;2022-07-05T03:11:15;99660.06;;;16.68;100.00
51958;BME280;41120;51.820;20.804;2022-07-05T03:13:42;99656.88;;;16.65;100.00
51958;BME280;41120;51.820;20.804;2022-07-05T03:16:15;99672.44;;;16.68;100.00
51958;BME280;41120;51.820;20.804;2022-07-05T03:18:59;99671.59;;;16.67;100.00
51958;BME280;41120;51.820;20.804;2022-07-05T03:21:25;99674.09;;;16.69;100.00
51958;BME280;41120;51.820;20.804;2022-07-05T03:23:59;99685.34;;;16.71;100.00
51958;BME280;41120;51.820;20.804;2022-07-05T03:26:26;99669.72;;;16.60;100.00
51958;BME280;41120;51.820;20.804;2022-07-05T03:28:53;99686.78;;;16.65;100.00
51958;BME280;41120;51.820;20.804;2022-07-05T03:31:32;99686.78;;;16.65;100.00
51958;BME280;41120;51.820;20.804;2022-07-05T03:33:59;99692.91;;;16.66;100.00
51958;BME280;41120;51.820;20.804;2022-07-05T03:36:25;99696.06;;;16.69;100.00
51958;BME280;41120;51.820;20.804;2022-07-05T03:38:59;99709.28;;;16.69;100.00
51958;BME280;41120;51.820;20.804;2022-07-05T03:41:38;99722.38;;;16.89;100.00
51958;BME280;41120;51.820;20.804;2022-07-05T03:44:04;99707.56;;;16.96;100.00
51958;BME280;41120;51.820;20.804;2022-07-05T03:46:37;99702.22;;;16.88;100.00
51958;BME280;41120;51.820;20.804;2022-07-05T03:49:04;99705.78;;;16.79;100.00
51958;BME280;41120;51.820;20.804;2022-07-05T03:51:38;99709.66;;;16.75;100.00
51958;BME280;41120;51.820;20.804;2022-07-05T03:54:26;99712.97;;;16.77;100.00
51958;BME280;41120;51.820;20.804;2022-07-05T03:57:00;99708.53;;;16.77;100.00
51958;BME280;41120;51.820;20.804;2022-07-05T03:59:49;99704.81;;;16.70;100.00
51958;BME280;41120;51.820;20.804;2022-07-05T04:02:43;99703.94;;;16.61;100.00
51958;BME280;41120;51.820;20.804;2022-07-05T04:05:33;99703.25;;;16.59;100.00
51958;BME280;41120;51.820;20.804;2022-07-05T04:08:00;99697.28;;;16.57;100.00
51958;BME280;41120;51.820;20.804;2022-07-05T04:10:25;99704.75;;;16.62;100.00
51958;BME280;41120;51.820;20.804;2022-07-05T04:13:20;99710.88;;;16.62;100.00
51958;BME280;41120;51.820;20.804;2022-07-05T04:15:52;99709.44;;;16.68;100.00
51958;BME280;41120;51.820;20.804;2022-07-05T04:18:18;99705.69;;;16.71;100.00
51958;BME280;41120;51.820;20.804;2022-07-05T04:20:45;99706.19;;;16.74;100.00
51958;BME280;41120;51.820;20.804;2022-07-05T04:23:12;99705.50;;;16.72;100.00
51958;BME280;41120;51.820;20.804;2022-07-05T04:25:45;99702.13;;;16.80;100.00
51958;BME280;41120;51.820;20.804;2022-07-05T04:28:16;99710.22;;;16.78;100.00
51958;BME280;41120;51.820;20.804;2022-07-05T04:30:43;99724.50;;;16.85;100.00
51958;BME280;41120;51.820;20.804;2022-07-05T04:33:09;99720.34;;;16.83;100.00
51958;BME280;41120;51.820;20.804;2022-07-05T04:35:37;99697.69;;;16.80;100.00
51958;BME280;41120;51.820;20.804;2022-07-05T04:38:09;99700.63;;;16.95;100.00
51958;BME280;41120;51.820;20.804;2022-07-05T04:40:36;99699.91;;;17.11;100.00
51958;BME280;41120;51.820;20.804;2022-07-05T04:43:02;99693.94;;;17.27;100.00
51958;BME280;41120;51.820;20.804;2022-07-05T04:45:28;99691.44;;;17.51;100.00
51958;BME280;41120;51.820;20.804;2022-07-05T04:47:54;99683.44;;;17.77;100.00
51958;BME280;41120;51.820;20.804;2022-07-05T04:50:26;99685.72;;;17.99;100.00
51958;BME280;41120;51.820;20.804;2022-07-05T04:52:57;99689.59;;;18.21;100.00
51958;BME280;41120;51.820;20.804;2022-07-05T04:55:25;99700.53;;;19.34;100.00
51958;BME280;41120;51.820;20.804;2022-07-05T04:58:00;99704.75;;;19.76;100.00
51958;BME280;41120;51.820;20.804;2022-07-05T05:00:28;99716.25;;;19.35;100.00
51958;BME280;41120;51.820;20.804;2022-07-05T05:02:54;99717.94;;;19.20;100.00
51958;BME280;41120;51.820;20.804;2022-07-05T05:05:33;99735.69;;;18.78;100.00
51958;BME280;41120;51.820;20.804;2022-07-05T05:08:01;99729.41;;;18.37;100.00
51958;BME280;41120;51.820;20.804;2022-07-05T05:10:27;99731.06;;;18.38;100.00
51958;BME280;41120;51.820;20.804;2022-07-05T05:12:53;99711.59;;;18.72;100.00
51958;BME280;41120;51.820;20.804;2022-07-05T05:15:28;99722.69;;;18.51;100.00
51958;BME280;41120;51.820;20.804;2022-07-05T05:18:13;99733.88;;;18.95;100.00
51958;BME280;41120;51.820;20.804;2022-07-05T05:21:00;99726.03;;;19.59;100.00
51958;BME280;41120;51.820;20.804;2022-07-05T05:23:28;99720.66;;;20.86;100.00
51958;BME280;41120;51.820;20.804;2022-07-05T05:26:00;99722.66;;;19.90;100.00
51958;BME280;41120;51.820;20.804;2022-07-05T05:28:35;99725.38;;;19.49;100.00
51958;BME280;41120;51.820;20.804;2022-07-05T05:31:02;99722.50;;;20.54;100.00
51958;BME280;41120;51.820;20.804;2022-07-05T05:33:29;99716.91;;;22.30;97.69
51958;BME280;41120;51.820;20.804;2022-07-05T05:36:01;99720.53;;;20.56;100.00
51958;BME280;41120;51.820;20.804;2022-07-05T05:38:31;99725.47;;;21.28;100.00
51958;BME280;41120;51.820;20.804;2022-07-05T05:40:58;99723.00;;;21.04;100.00
51958;BME280;41120;51.820;20.804;2022-07-05T05:43:25;99719.91;;;21.00;100.00
51958;BME280;41120;51.820;20.804;2022-07-05T05:45:55;99716.56;;;21.36;100.00
51958;BME280;41120;51.820;20.804;2022-07-05T05:48:29;99723.31;;;22.94;90.73
51958;BME280;41120;51.820;20.804;2022-07-05T05:51:01;99720.78;;;21.30;96.93
51958;BME280;41120;51.820;20.804;2022-07-05T05:53:55;99715.88;;;20.19;100.00
51958;BME280;41120;51.820;20.804;2022-07-05T05:56:26;99716.06;;;21.41;98.41
51958;BME280;41120;51.820;20.804;2022-07-05T05:58:57;99723.66;;;21.29;100.00
51958;BME280;41120;51.820;20.804;2022-07-05T06:01:25;99712.41;;;21.42;98.22
51958;BME280;41120;51.820;20.804;2022-07-05T06:03:56;99707.63;;;21.52;99.52
51958;BME280;41120;51.820;20.804;2022-07-05T06:06:30;99707.00;;;23.03;89.82
51958;BME280;41120;51.820;20.804;2022-07-05T06:09:02;99716.28;;;23.36;87.38
51958;BME280;41120;51.820;20.804;2022-07-05T06:11:28;99717.13;;;24.47;85.79
51958;BME280;41120;51.820;20.804;2022-07-05T06:13:55;99715.81;;;26.16;75.70
51958;BME280;41120;51.820;20.804;2022-07-05T06:16:33;99718.31;;;26.63;71.32
51958;BME280;41120;51.820;20.804;2022-07-05T06:19:03;99718.16;;;26.83;71.23
51958;BME280;41120;51.820;20.804;2022-07-05T06:21:30;99718.66;;;25.10;76.50
51958;BME280;41120;51.820;20.804;2022-07-05T06:23:56;99735.41;;;27.50;69.12
51958;BME280;41120;51.820;20.804;2022-07-05T06:26:32;99732.06;;;26.28;70.60
51958;BME280;41120;51.820;20.804;2022-07-05T06:29:00;99733.50;;;23.83;80.81
51958;BME280;41120;51.820;20.804;2022-07-05T06:31:27;99719.94;;;23.91;82.51
51958;BME280;41120;51.820;20.804;2022-07-05T06:34:02;99741.03;;;27.92;66.07
51958;BME280;41120;51.820;20.804;2022-07-05T06:36:30;99747.47;;;28.40;63.15
51958;BME280;41120;51.820;20.804;2022-07-05T06:38:56;99748.91;;;25.77;70.91
51958;BME280;41120;51.820;20.804;2022-07-05T06:41:39;99759.25;;;28.27;62.87
51958;BME280;41120;51.820;20.804;2022-07-05T06:44:06;99748.31;;;26.53;68.53
51958;BME280;41120;51.820;20.804;2022-07-05T06:46:31;99752.63;;;27.68;64.45
51958;BME280;41120;51.820;20.804;2022-07-05T06:48:57;99743.97;;;26.84;67.62
51958;BME280;41120;51.820;20.804;2022-07-05T06:51:26;99736.25;;;26.17;70.20
51958;BME280;41120;51.820;20.804;2022-07-05T06:53:54;99731.16;;;24.56;76.69
51958;BME280;41120;51.820;20.804;2022-07-05T06:56:22;99738.63;;;27.84;65.75
51958;BME280;41120;51.820;20.804;2022-07-05T06:58:50;99737.59;;;25.88;69.84
51958;BME280;41120;51.820;20.804;2022-07-05T07:01:16;99725.69;;;25.37;72.51
51958;BME280;41120;51.820;20.804;2022-07-05T07:03:43;99728.16;;;25.26;74.42
51958;BME280;41120;51.820;20.804;2022-07-05T07:06:09;99729.44;;;26.66;68.87
51958;BME280;41120;51.820;20.804;2022-07-05T07:08:35;99724.66;;;26.23;71.18
51958;BME280;41120;51.820;20.804;2022-07-05T07:11:20;99728.72;;;25.74;71.89
51958;BME280;41120;51.820;20.804;2022-07-05T07:13:58;99739.56;;;26.96;68.57
51958;BME280;41120;51.820;20.804;2022-07-05T07:16:26;99745.84;;;27.40;67.02
51958;BME280;41120;51.820;20.804;2022-07-05T07:19:04;99746.50;;;29.49;60.63
51958;BME280;41120;51.820;20.804;2022-07-05T07:21:32;99736.34;;;30.15;57.43
51958;BME280;41120;51.820;20.804;2022-07-05T07:24:01;99741.97;;;26.73;65.81
51958;BME280;41120;51.820;20.804;2022-07-05T07:26:27;99735.19;;;23.90;79.40
51958;BME280;41120;51.820;20.804;2022-07-05T07:28:56;99732.06;;;25.63;77.59
51958;BME280;41120;51.820;20.804;2022-07-05T07:31:26;99730.00;;;25.12;78.32
51958;BME280;41120;51.820;20.804;2022-07-05T07:33:52;99739.16;;;24.08;82.28
51958;BME280;41120;51.820;20.804;2022-07-05T07:36:23;99728.56;;;23.30;83.82
51958;BME280;41120;51.820;20.804;2022-07-05T07:39:04;99730.06;;;24.44;79.85
51958;BME280;41120;51.820;20.804;2022-07-05T07:41:52;99719.63;;;24.14;82.94
51958;BME280;41120;51.820;20.804;2022-07-05T07:44:19;99721.44;;;23.37;83.55
51958;BME280;41120;51.820;20.804;2022-07-05T07:46:50;99725.53;;;22.69;86.96
51958;BME280;41120;51.820;20.804;2022-07-05T07:49:21;99722.28;;;22.73;88.28
51958;BME280;41120;51.820;20.804;2022-07-05T07:51:54;99717.78;;;23.45;88.88
51958;BME280;41120;51.820;20.804;2022-07-05T07:54:22;99712.97;;;23.90;85.78
51958;BME280;41120;51.820;20.804;2022-07-05T07:56:49;99728.25;;;24.03;85.12
51958;BME280;41120;51.820;20.804;2022-07-05T07:59:15;99727.13;;;23.84;86.04
51958;BME280;41120;51.820;20.804;2022-07-05T08:01:48;99725.88;;;23.02;85.65
51958;BME280;41120;51.820;20.804;2022-07-05T08:04:16;99726.28;;;23.83;85.03
51958;BME280;41120;51.820;20.804;2022-07-05T08:06:47;99728.19;;;23.61;83.09
51958;BME280;41120;51.820;20.804;2022-07-05T08:09:32;99737.38;;;23.80;81.69
51958;BME280;41120;51.820;20.804;2022-07-05T08:12:00;99742.13;;;25.01;79.95
51958;BME280;41120;51.820;20.804;2022-07-05T08:14:39;99730.72;;;25.99;75.41
51958;BME280;41120;51.820;20.804;2022-07-05T08:17:05;99726.41;;;26.43;77.38
51958;BME280;41120;51.820;20.804;2022-07-05T08:19:36;99741.09;;;26.85;71.36
51958;BME280;41120;51.820;20.804;2022-07-05T08:22:26;99728.13;;;25.12;77.61
51958;BME280;41120;51.820;20.804;2022-07-05T08:24:52;99721.94;;;24.98;81.55
51958;BME280;41120;51.820;20.804;2022-07-05T08:27:19;99730.34;;;25.89;71.59
51958;BME280;41120;51.820;20.804;2022-07-05T08:30:02;99732.59;;;26.05;71.27
51958;BME280;41120;51.820;20.804;2022-07-05T08:33:04;99733.88;;;25.69;74.06
51958;BME280;41120;51.820;20.804;2022-07-05T08:35:34;99734.91;;;24.20;78.59
51958;BME280;41120;51.820;20.804;2022-07-05T08:38:26;99725.44;;;25.06;78.88
51958;BME280;41120;51.820;20.804;2022-07-05T08:41:23;99728.75;;;25.61;76.20
51958;BME280;41120;51.820;20.804;2022-07-05T08:43:50;99728.28;;;25.77;78.56
51958;BME280;41120;51.820;20.804;2022-07-05T08:46:39;99734.28;;;25.93;75.70
51958;BME280;41120;51.820;20.804;2022-07-05T08:49:09;99733.56;;;26.17;72.08
51958;BME280;41120;51.820;20.804;2022-07-05T08:52:00;99732.97;;;26.15;70.71
51958;BME280;41120;51.820;20.804;2022-07-05T08:54:28;99736.25;;;26.17;70.97
51958;BME280;41120;51.820;20.804;2022-07-05T08:56:56;99726.31;;;26.24;76.23
51958;BME280;41120;51.820;20.804;2022-07-05T08:59:22;99734.00;;;26.53;73.62
51958;BME280;41120;51.820;20.804;2022-07-05T09:02:04;99736.97;;;26.38;70.94
51958;BME280;41120;51.820;20.804;2022-07-05T09:04:42;99735.88;;;26.07;75.58
51958;BME280;41120;51.820;20.804;2022-07-05T09:07:14;99737.84;;;25.40;73.89
51958;BME280;41120;51.820;20.804;2022-07-05T09:09:43;99730.59;;;25.01;75.79
51958;BME280;41120;51.820;20.804;2022-07-05T09:12:13;99723.63;;;25.39;77.21
51958;BME280;41120;51.820;20.804;2022-07-05T09:14:39;99718.91;;;25.22;75.89
51958;BME280;41120;51.820;20.804;2022-07-05T09:17:06;99736.81;;;25.41;76.30
51958;BME280;41120;51.820;20.804;2022-07-05T09:19:36;99731.44;;;25.48;73.57
51958;BME280;41120;51.820;20.804;2022-07-05T09:22:17;99724.19;;;25.68;75.06
51958;BME280;41120;51.820;20.804;2022-07-05T09:24:54;99730.81;;;26.31;72.86
51958;BME280;41120;51.820;20.804;2022-07-05T09:27:19;99730.81;;;26.31;73.55
51958;BME280;41120;51.820;20.804;2022-07-05T09:29:56;99720.22;;;26.42;70.84
51958;BME280;41120;51.820;20.804;2022-07-05T09:32:29;99720.84;;;26.44;74.11
51958;BME280;41120;51.820;20.804;2022-07-05T09:35:34;99729.47;;;26.60;72.50
51958;BME280;41120;51.820;20.804;2022-07-05T09:38:16;99732.72;;;26.68;71.46
51958;BME280;41120;51.820;20.804;2022-07-05T09:43:39;99729.63;;;26.97;65.30
51958;BME280;41120;51.820;20.804;2022-07-05T09:46:11;99738.91;;;27.01;69.27
51958;BME280;41120;51.820;20.804;2022-07-05T09:49:04;99730.50;;;26.90;66.79
51958;BME280;41120;51.820;20.804;2022-07-05T09:51:48;99733.06;;;26.79;66.35
51958;BME280;41120;51.820;20.804;2022-07-05T09:54:20;99728.31;;;26.81;70.58
51958;BME280;41120;51.820;20.804;2022-07-05T09:56:49;99728.91;;;26.83;72.61
51958;BME280;41120;51.820;20.804;2022-07-05T09:59:19;99733.53;;;26.69;71.50
51958;BME280;41120;51.820;20.804;2022-07-05T10:01:54;99737.00;;;26.76;69.06
51958;BME280;41120;51.820;20.804;2022-07-05T10:04:20;99733.22;;;26.45;68.15
51958;BME280;41120;51.820;20.804;2022-07-05T10:06:53;99728.78;;;26.26;69.31
51958;BME280;41120;51.820;20.804;2022-07-05T10:09:29;99726.88;;;25.88;72.91
51958;BME280;41120;51.820;20.804;2022-07-05T10:11:56;99727.28;;;26.43;69.98
51958;BME280;41120;51.820;20.804;2022-07-05T10:14:26;99729.69;;;26.58;72.45
51958;BME280;41120;51.820;20.804;2022-07-05T10:16:57;99733.25;;;25.87;74.37
51958;BME280;41120;51.820;20.804;2022-07-05T10:19:41;99735.13;;;25.60;72.53
51958;BME280;41120;51.820;20.804;2022-07-05T10:22:26;99738.44;;;25.62;71.80
51958;BME280;41120;51.820;20.804;2022-07-05T10:25:06;99738.03;;;25.45;73.07
51958;BME280;41120;51.820;20.804;2022-07-05T10:27:33;99736.56;;;25.76;72.02
51958;BME280;41120;51.820;20.804;2022-07-05T10:30:01;99741.47;;;25.99;70.19
51958;BME280;41120;51.820;20.804;2022-07-05T10:32:36;99743.19;;;25.60;74.23
51958;BME280;41120;51.820;20.804;2022-07-05T10:35:08;99742.19;;;25.34;76.83
51958;BME280;41120;51.820;20.804;2022-07-05T10:37:40;99740.22;;;24.75;76.04
51958;BME280;41120;51.820;20.804;2022-07-05T10:40:17;99740.19;;;24.55;76.40
51958;BME280;41120;51.820;20.804;2022-07-05T10:42:58;99735.19;;;24.45;80.24
51958;BME280;41120;51.820;20.804;2022-07-05T10:45:47;99737.50;;;24.55;78.88
51958;BME280;41120;51.820;20.804;2022-07-05T10:48:38;99736.75;;;24.94;76.24
51958;BME280;41120;51.820;20.804;2022-07-05T10:58:39;99726.09;;;25.28;74.73
51958;BME280;41120;51.820;20.804;2022-07-05T11:01:33;99724.81;;;24.90;77.70
51958;BME280;41120;51.820;20.804;2022-07-05T11:06:41;99726.34;;;24.45;78.71
51958;BME280;41120;51.820;20.804;2022-07-05T11:09:30;99713.44;;;24.48;79.74
51958;BME280;41120;51.820;20.804;2022-07-05T11:17:29;99717.38;;;24.72;78.15
51958;BME280;41120;51.820;20.804;2022-07-05T11:20:25;99716.38;;;25.07;75.98
51958;BME280;41120;51.820;20.804;2022-07-05T11:23:08;99714.03;;;24.50;77.80
51958;BME280;41120;51.820;20.804;2022-07-05T11:25:37;99706.72;;;24.31;77.92
51958;BME280;41120;51.820;20.804;2022-07-05T11:30:58;99703.22;;;24.24;79.40
51958;BME280;41120;51.820;20.804;2022-07-05T11:33:41;99704.03;;;24.18;80.31
51958;BME280;41120;51.820;20.804;2022-07-05T11:36:22;99698.28;;;24.27;80.87
51958;BME280;41120;51.820;20.804;2022-07-05T11:39:11;99690.78;;;24.51;79.67
51958;BME280;41120;51.820;20.804;2022-07-05T11:41:44;99697.84;;;24.24;80.39
51958;BME280;41120;51.820;20.804;2022-07-05T11:44:11;99683.63;;;24.10;81.26
51958;BME280;41120;51.820;20.804;2022-07-05T11:46:41;99683.25;;;24.20;80.13
51958;BME280;41120;51.820;20.804;2022-07-05T11:49:07;99683.44;;;24.18;80.94
51958;BME280;41120;51.820;20.804;2022-07-05T11:51:55;99685.06;;;24.12;86.14
51958;BME280;41120;51.820;20.804;2022-07-05T11:54:26;99674.72;;;23.61;89.04
51958;BME280;41120;51.820;20.804;2022-07-05T11:56:54;99653.53;;;23.60;89.17
51958;BME280;41120;51.820;20.804;2022-07-05T11:59:27;99666.50;;;23.28;91.07
51958;BME280;41120;51.820;20.804;2022-07-05T12:02:00;99669.66;;;23.10;91.11
51958;BME280;41120;51.820;20.804;2022-07-05T12:04:31;99667.13;;;23.02;91.65
51958;BME280;41120;51.820;20.804;2022-07-05T12:06:58;99666.22;;;22.95;92.27
51958;BME280;41120;51.820;20.804;2022-07-05T12:09:30;99671.25;;;22.83;92.84
51958;BME280;41120;51.820;20.804;2022-07-05T12:12:26;99658.25;;;22.73;94.64
51958;BME280;41120;51.820;20.804;2022-07-05T12:15:12;99656.31;;;22.67;93.44
51958;BME280;41120;51.820;20.804;2022-07-05T12:17:46;99658.31;;;22.58;94.40
51958;BME280;41120;51.820;20.804;2022-07-05T12:20:20;99657.59;;;22.50;95.20
51958;BME280;41120;51.820;20.804;2022-07-05T12:22:57;99662.72;;;22.30;97.15
51958;BME280;41120;51.820;20.804;2022-07-05T12:25:28;99671.25;;;22.40;98.17
51958;BME280;41120;51.820;20.804;2022-07-05T12:27:56;99682.47;;;22.35;99.39
51958;BME280;41120;51.820;20.804;2022-07-05T12:30:31;99695.47;;;22.09;100.00
51958;BME280;41120;51.820;20.804;2022-07-05T12:32:58;99706.00;;;21.80;100.00
51958;BME280;41120;51.820;20.804;2022-07-05T12:35:36;99704.31;;;21.65;100.00
51958;BME280;41120;51.820;20.804;2022-07-05T12:38:15;99711.88;;;21.46;100.00
51958;BME280;41120;51.820;20.804;2022-07-05T12:40:46;99727.88;;;21.00;100.00
51958;BME280;41120;51.820;20.804;2022-07-05T12:43:15;99727.34;;;20.82;100.00
51958;BME280;41120;51.820;20.804;2022-07-05T12:45:44;99737.47;;;20.55;100.00
51958;BME280;41120;51.820;20.804;2022-07-05T12:48:12;99739.50;;;20.14;100.00
51958;BME280;41120;51.820;20.804;2022-07-05T12:50:50;99730.97;;;19.62;100.00
51958;BME280;41120;51.820;20.804;2022-07-05T12:53:19;99726.91;;;19.27;100.00
51958;BME280;41120;51.820;20.804;2022-07-05T12:56:24;99739.66;;;18.99;100.00
51958;BME280;41120;51.820;20.804;2022-07-05T12:59:10;99745.47;;;18.78;100.00
51958;BME280;41120;51.820;20.804;2022-07-05T13:01:42;99750.16;;;18.58;100.00
51958;BME280;41120;51.820;20.804;2022-07-05T13:04:15;99748.94;;;18.36;100.00
51958;BME280;41120;51.820;20.804;2022-07-05T13:09:11;99755.44;;;18.42;100.00
51958;BME280;41120;51.820;20.804;2022-07-05T13:11:50;99749.00;;;18.44;100.00
51958;BME280;41120;51.820;20.804;2022-07-05T13:14:17;99751.91;;;18.25;100.00
51958;BME280;41120;51.820;20.804;2022-07-05T13:16:57;99756.41;;;18.32;100.00
51958;BME280;41120;51.820;20.804;2022-07-05T13:19:31;99767.81;;;18.25;100.00
51958;BME280;41120;51.820;20.804;2022-07-05T13:22:11;99762.31;;;18.26;100.00
51958;BME280;41120;51.820;20.804;2022-07-05T13:24:43;99774.28;;;17.96;100.00
51958;BME280;41120;51.820;20.804;2022-07-05T13:27:18;99766.66;;;17.93;100.00
51958;BME280;41120;51.820;20.804;2022-07-05T13:29:56;99765.91;;;18.09;100.00
51958;BME280;41120;51.820;20.804;2022-07-05T13:32:30;99762.84;;;18.22;100.00
51958;BME280;41120;51.820;20.804;2022-07-05T13:35:07;99749.41;;;18.23;100.00
51958;BME280;41120;51.820;20.804;2022-07-05T13:37:34;99752.38;;;18.20;100.00
51958;BME280;41120;51.820;20.804;2022-07-05T13:40:24;99742.47;;;18.30;100.00
51958;BME280;41120;51.820;20.804;2022-07-05T13:42:51;99732.91;;;18.37;100.00
51958;BME280;41120;51.820;20.804;2022-07-05T13:45:24;99741.38;;;18.41;100.00